Custer, Washington
Current Conditions -  °F | °C
As of 6:53 AM on Thursday 18 Dec 2014 (Local Time) from KBLI Reporting Station
Overcast Overcast  
Wind Chill: 43°   Ceiling: 1000
Heat Index: 43°   Visibility: 7mi
Dew Point: 41°   Wind: 0mph
Humidity: 93%   Direction: NA
Pressure: 29.92"   Gusts: NA
Location:  48.92°N, 122.64°W
Report Text: KBLI 181453Z AUTO 00000KT 7SM OVC010 06/05 A2992 RMK AO2 RAE00 SLP140 P0000 60004 T00610050 52002
Loading
Personal Weather Stations






























Interactive Weather Map New forecast layout! Learn more

10-Day Weather Forecast

Advertisements
Track Severe Weather on mobile